Time;durP1;ratioP1;P1;durP2;ratioP2;P2;SDS_P1;SDS_P2;PMS_P1;PMS_P2;Temp;Humidity;BMP_temperature;BMP_pressure;BME280_temperature;BME280_humidity;BME280_pressure;Samples;Min_cycle;Max_cycle;Signal;HPM_P1;HPM_P2
2022/09/19 00:01:30;;;;;;;7.00;2.42;;;11.20;99.90;;;;;;5075313;28;20114;-66
2022/09/19 00:04:02;;;;;;;12.57;2.22;;;11.20;99.90;;;;;;5072819;28;20107;-66
2022/09/19 00:06:30;;;;;;;8.60;2.42;;;11.30;99.90;;;;;;5073246;28;20049;-66
2022/09/19 00:08:57;;;;;;;6.47;2.50;;;11.30;99.90;;;;;;5074127;28;20107;-66
2022/09/19 00:11:25;;;;;;;4.10;2.13;;;11.30;99.90;;;;;;5074312;28;20111;-66
2022/09/19 00:13:53;;;;;;;15.70;2.13;;;11.30;99.90;;;;;;5070501;28;20021;-67
2022/09/19 00:16:26;;;;;;;7.97;3.50;;;11.30;99.90;;;;;;5071960;28;20031;-67
2022/09/19 00:18:53;;;;;;;;;;;11.30;99.90;;;;;;5060768;28;20402;-67
2022/09/19 00:21:29;;;;;;;12.73;5.35;;;11.30;99.90;;;;;;5074018;28;20357;-66
2022/09/19 00:26:40;;;;;;;4.55;2.30;;;11.20;99.90;;;;;;5073106;28;20043;-67
2022/09/19 00:29:08;;;;;;;5.18;2.38;;;11.30;99.90;;;;;;5073516;28;20048;-67
2022/09/19 00:31:34;;;;;;;5.25;2.65;;;11.20;99.90;;;;;;5073956;28;20032;-66
2022/09/19 00:34:02;;;;;;;4.05;2.05;;;11.30;99.90;;;;;;5054902;28;20059;-67
2022/09/19 00:36:28;;;;;;;5.07;1.90;;;11.30;99.90;;;;;;5054112;28;20036;-66
2022/09/19 00:38:53;;;;;;;7.10;3.05;;;11.30;99.90;;;;;;5073069;28;20023;-67
2022/09/19 00:41:25;;;;;;;5.72;3.13;;;11.30;99.90;;;;;;5055243;28;20102;-67
2022/09/19 00:43:54;;;;;;;5.13;2.42;;;11.30;99.90;;;;;;5054879;28;20044;-66
2022/09/19 00:46:22;;;;;;;6.07;1.88;;;11.30;99.90;;;;;;5073160;28;20032;-66
2022/09/19 00:49:10;;;;;;;4.95;2.28;;;11.20;99.90;;;;;;5058151;28;20075;-66
2022/09/19 00:52:38;;;;;;;6.40;1.95;;;11.20;99.90;;;;;;5045245;28;20029;-67
2022/09/19 00:55:04;;;;;;;11.50;2.35;;;11.20;99.90;;;;;;4986842;28;20038;-66
2022/09/19 00:57:40;;;;;;;7.75;3.28;;;11.20;99.90;;;;;;4989202;28;20045;-67
2022/09/19 01:00:07;;;;;;;7.85;2.65;;;11.20;99.90;;;;;;4975519;28;20097;-66
2022/09/19 01:02:33;;;;;;;14.07;3.00;;;11.10;99.90;;;;;;4984179;28;20100;-67
2022/09/19 01:05:02;;;;;;;8.18;2.15;;;11.00;99.90;;;;;;4985450;28;20113;-66
2022/09/19 01:07:42;;;;;;;16.88;2.70;;;10.90;99.90;;;;;;4972291;28;20039;-66
2022/09/19 01:10:12;;;;;;;10.50;2.17;;;10.70;99.90;;;;;;4983096;28;20616;-67
2022/09/19 01:13:00;;;;;;;6.20;2.05;;;10.70;99.90;;;;;;4984906;28;20030;-67
2022/09/19 01:15:56;;;;;;;10.55;1.92;;;10.70;99.90;;;;;;4975147;28;20036;-66
2022/09/19 01:18:30;;;;;;;10.43;2.83;;;10.80;99.90;;;;;;4987895;28;20038;-67
2022/09/19 01:24:23;;;;;;;13.15;3.35;;;10.80;99.90;;;;;;4991112;28;20042;-67
2022/09/19 01:27:09;;;;;;;11.07;2.70;;;10.80;99.90;;;;;;4989351;28;20046;-67
2022/09/19 01:29:47;;;;;;;10.68;2.65;;;10.80;99.90;;;;;;4990202;28;20042;-67
2022/09/19 01:32:18;;;;;;;10.98;3.03;;;10.80;99.90;;;;;;5053934;28;20124;-67
2022/09/19 01:34:50;;;;;;;6.80;2.38;;;10.80;99.90;;;;;;5054461;28;20489;-67
2022/09/19 01:37:47;;;;;;;5.68;2.33;;;10.80;99.90;;;;;;5054628;28;20502;-67
2022/09/19 01:40:15;;;;;;;16.33;2.60;;;10.80;99.90;;;;;;5054284;28;20032;-67
2022/09/19 01:42:55;;;;;;;6.35;3.05;;;10.90;99.90;;;;;;5054782;28;20501;-66
2022/09/19 01:45:31;;;;;;;14.70;6.00;;;10.90;99.90;;;;;;5054477;28;20032;-67
2022/09/19 01:48:21;;;;;;;14.52;8.05;;;10.90;99.90;;;;;;5054610;28;20035;-67
2022/09/19 01:50:50;;;;;;;7.93;3.40;;;10.80;99.90;;;;;;5059312;28;20421;-66
2022/09/19 01:53:24;;;;;;;5.68;2.88;;;10.90;99.90;;;;;;5053987;28;20020;-67
2022/09/19 01:56:28;;;;;;;8.13;2.60;;;10.80;99.90;;;;;;5072480;28;20047;-67
2022/09/19 01:59:13;;;;;;;5.20;2.95;;;10.90;99.90;;;;;;5053998;28;20047;-65
2022/09/19 02:01:53;;;;;;;6.10;3.22;;;11.00;99.90;;;;;;5054371;28;20079;-67
2022/09/19 02:04:34;;;;;;;7.55;3.15;;;11.00;99.90;;;;;;5040860;28;20021;-67
2022/09/19 02:07:25;;;;;;;7.18;3.10;;;11.00;99.90;;;;;;5053986;28;20052;-67
2022/09/19 02:10:01;;;;;;;4.47;2.30;;;11.00;99.90;;;;;;4954981;28;20107;-67
2022/09/19 02:12:34;;;;;;;8.35;2.15;;;10.90;99.90;;;;;;4965116;28;20042;-67
2022/09/19 02:15:03;;;;;;;4.57;2.25;;;10.90;99.90;;;;;;4951538;28;20039;-67
2022/09/19 02:17:44;;;;;;;9.35;3.05;;;10.80;99.90;;;;;;4954206;28;20031;-67
2022/09/19 02:20:19;;;;;;;5.22;2.10;;;10.80;99.90;;;;;;4952254;28;20449;-67
2022/09/19 02:22:51;;;;;;;6.55;2.60;;;10.80;99.90;;;;;;4941423;28;20110;-67
2022/09/19 02:25:25;;;;;;;18.37;3.73;;;10.80;99.90;;;;;;4950995;28;20405;-66
2022/09/19 02:28:03;;;;;;;6.80;1.80;;;10.70;99.90;;;;;;4951136;28;20039;-67
2022/09/19 02:30:30;;;;;;;4.20;1.85;;;10.60;99.90;;;;;;4951689;28;20390;-66
2022/09/19 02:32:57;;;;;;;3.90;1.73;;;10.50;99.90;;;;;;4951240;28;20059;-67
2022/09/19 02:35:45;;;;;;;4.80;2.00;;;10.40;99.90;;;;;;4951232;28;20043;-67
2022/09/19 02:38:35;;;;;;;3.10;1.58;;;10.30;99.90;;;;;;4956611;28;20060;-67
2022/09/19 02:41:20;;;;;;;4.75;1.75;;;10.30;99.90;;;;;;4944657;28;20035;-67
2022/09/19 02:44:04;;;;;;;4.53;2.25;;;10.30;99.90;;;;;;4951108;28;20027;-67
2022/09/19 02:46:43;;;;;;;5.60;1.55;;;10.30;99.90;;;;;;4986023;28;20127;-66
2022/09/19 02:49:38;;;;;;;4.57;1.95;;;10.30;99.90;;;;;;5053530;28;20110;-66
2022/09/19 02:52:19;;;;;;;3.53;1.65;;;10.30;99.90;;;;;;5054820;28;20033;-67
2022/09/19 02:54:49;;;;;;;5.43;2.47;;;10.20;99.90;;;;;;5055381;28;20017;-67
2022/09/19 02:57:19;;;;;;;4.35;1.67;;;10.30;99.90;;;;;;5043382;28;20028;-67
2022/09/19 02:59:49;;;;;;;2.92;1.50;;;10.30;99.90;;;;;;5056614;28;20025;-67
2022/09/19 03:02:18;;;;;;;3.33;1.55;;;10.30;99.90;;;;;;5033677;28;20035;-67
2022/09/19 03:04:49;;;;;;;3.38;1.80;;;10.40;99.90;;;;;;5051050;28;20025;-67
2022/09/19 03:07:30;;;;;;;3.53;1.48;;;10.40;99.90;;;;;;5041432;28;20463;-66
2022/09/19 03:10:10;;;;;;;4.65;1.98;;;10.40;99.90;;;;;;5040034;28;20025;-67
2022/09/19 03:13:05;;;;;;;3.42;2.28;;;10.40;99.90;;;;;;5053368;28;20036;-67
2022/09/19 03:15:37;;;;;;;9.32;2.63;;;10.20;99.90;;;;;;5053436;28;20104;-67
2022/09/19 03:18:10;;;;;;;5.78;2.70;;;10.00;99.90;;;;;;5071339;28;20213;-67
2022/09/19 03:20:39;;;;;;;4.18;2.72;;;9.80;99.90;;;;;;5051324;28;20470;-66
2022/09/19 03:23:10;;;;;;;6.20;3.05;;;9.90;99.90;;;;;;5032282;28;20496;-67
2022/09/19 03:25:38;;;;;;;5.13;2.78;;;9.90;99.90;;;;;;5045728;28;20077;-66
2022/09/19 03:28:04;;;;;;;5.53;2.42;;;9.90;99.90;;;;;;5057349;28;20028;-67
2022/09/19 03:30:33;;;;;;;5.47;3.15;;;9.90;99.90;;;;;;5053421;28;20479;-67
2022/09/19 03:32:59;;;;;;;6.00;2.90;;;9.70;99.90;;;;;;5067884;28;20040;-67
2022/09/19 03:35:25;;;;;;;7.13;3.60;;;9.60;99.90;;;;;;5049289;28;20035;-66
2022/09/19 03:37:52;;;;;;;8.35;3.33;;;9.60;99.90;;;;;;5055061;28;20261;-67
2022/09/19 03:40:22;;;;;;;5.22;3.17;;;9.70;99.90;;;;;;5056596;28;20024;-67
2022/09/19 03:42:52;;;;;;;8.20;4.95;;;9.70;99.90;;;;;;5056522;28;20082;-67
2022/09/19 03:45:20;;;;;;;7.47;4.22;;;9.70;99.90;;;;;;5056339;28;20102;-67
2022/09/19 03:47:47;;;;;;;6.25;3.67;;;9.80;99.90;;;;;;5056729;28;20463;-66
2022/09/19 03:50:12;;;;;;;5.43;3.03;;;9.80;99.90;;;;;;5056613;28;20025;-67
2022/09/19 03:52:49;;;;;;;4.28;2.80;;;9.90;99.90;;;;;;5056660;28;20036;-67
2022/09/19 03:55:18;;;;;;;9.30;3.63;;;9.90;99.90;;;;;;5056307;28;20056;-67
2022/09/19 03:57:45;;;;;;;9.02;3.65;;;9.90;99.90;;;;;;5047072;28;20461;-67
2022/09/19 04:00:11;;;;;;;9.23;3.05;;;9.90;99.90;;;;;;5074183;28;20052;-67
2022/09/19 04:02:42;;;;;;;8.25;3.75;;;9.90;99.90;;;;;;5073714;28;20055;-67
2022/09/19 04:05:10;;;;;;;7.50;3.22;;;9.90;99.90;;;;;;5055547;28;20051;-68
2022/09/19 04:07:37;;;;;;;6.53;3.35;;;9.90;99.90;;;;;;5055207;28;20390;-68
2022/09/19 04:10:06;;;;;;;7.22;3.38;;;10.00;99.90;;;;;;5055322;28;20390;-68
2022/09/19 04:12:33;;;;;;;6.65;3.03;;;10.00;99.90;;;;;;5055595;28;20020;-66
2022/09/19 04:15:00;;;;;;;7.63;3.83;;;9.90;99.90;;;;;;5056895;28;20102;-68
2022/09/19 04:17:27;;;;;;;5.32;2.40;;;9.70;99.90;;;;;;5068539;28;20078;-68
2022/09/19 04:20:00;;;;;;;6.10;2.90;;;9.50;99.90;;;;;;5049291;28;20031;-67
2022/09/19 04:22:44;;;;;;;5.97;2.25;;;9.50;99.90;;;;;;5048837;28;20127;-67
2022/09/19 04:25:22;;;;;;;3.80;1.95;;;9.50;99.90;;;;;;5066615;28;20102;-68
2022/09/19 04:28:06;;;;;;;6.35;2.40;;;9.50;99.90;;;;;;5050125;28;20033;-65
2022/09/19 04:30:36;;;;;;;4.80;2.15;;;9.40;99.90;;;;;;5055806;28;20078;-67
2022/09/19 04:33:04;;;;;;;8.82;3.22;;;9.40;99.90;;;;;;5055470;28;20036;-67
2022/09/19 04:35:34;;;;;;;8.02;3.03;;;9.40;99.90;;;;;;5049863;28;20070;-69
2022/09/19 04:38:03;;;;;;;5.50;1.88;;;9.40;99.90;;;;;;5047257;28;20118;-68
2022/09/19 04:40:28;;;;;;;10.63;3.20;;;9.40;99.90;;;;;;5055450;28;20031;-69
2022/09/19 04:42:55;;;;;;;3.55;1.90;;;9.50;99.90;;;;;;5030655;28;20033;-68
2022/09/19 04:45:22;;;;;;;6.70;2.33;;;9.60;99.90;;;;;;5038418;28;20432;-68
2022/09/19 04:48:14;;;;;;;11.13;2.58;;;9.70;99.90;;;;;;5049179;28;20421;-68
2022/09/19 04:50:40;;;;;;;7.88;2.45;;;9.70;99.90;;;;;;5055095;28;20031;-69
2022/09/19 04:53:07;;;;;;;10.77;2.88;;;9.80;99.90;;;;;;5049993;28;20024;-68
2022/09/19 04:55:33;;;;;;;5.93;2.03;;;9.90;99.90;;;;;;5054803;28;20493;-68
2022/09/19 04:58:00;;;;;;;4.28;2.60;;;10.20;99.90;;;;;;5055211;28;20155;-69
2022/09/19 05:00:39;;;;;;;3.78;2.90;;;11.00;99.90;;;;;;5060540;28;20039;-68
2022/09/19 05:03:12;;;;;;;10.70;2.35;;;12.40;99.90;;;;;;5054750;28;20048;-68
2022/09/19 05:05:44;;;;;;;5.50;2.30;;;12.70;99.90;;;;;;5054726;28;20075;-69
2022/09/19 05:08:15;;;;;;;4.82;2.30;;;12.00;99.90;;;;;;5054913;28;20032;-69
2022/09/19 05:10:46;;;;;;;8.90;3.08;;;12.40;99.90;;;;;;5065988;28;20390;-69
2022/09/19 05:13:13;;;;;;;5.82;3.10;;;12.80;99.90;;;;;;5075212;28;20024;-69
2022/09/19 05:15:41;;;;;;;9.68;3.67;;;12.30;99.90;;;;;;5066409;28;20027;-68
2022/09/19 05:18:10;;;;;;;5.75;3.03;;;12.30;99.90;;;;;;5042684;28;20087;-69
2022/09/19 05:20:37;;;;;;;7.32;2.67;;;12.30;99.90;;;;;;5051209;28;20025;-68
2022/09/19 05:23:04;;;;;;;4.57;2.40;;;12.00;99.90;;;;;;5058443;28;20481;-68
2022/09/19 05:25:35;;;;;;;3.95;2.03;;;11.90;99.90;;;;;;5057165;28;20028;-69
2022/09/19 05:28:04;;;;;;;10.77;2.72;;;11.80;99.90;;;;;;5071190;28;20052;-69
2022/09/19 05:30:35;;;;;;;4.43;2.10;;;11.90;99.90;;;;;;5063999;28;20063;-69
2022/09/19 05:33:02;;;;;;;5.18;2.13;;;11.90;99.90;;;;;;5071690;28;20466;-68
2022/09/19 05:35:38;;;;;;;5.53;2.42;;;11.90;99.90;;;;;;5067032;28;20032;-69
2022/09/19 05:38:32;;;;;;;8.75;2.63;;;11.90;99.90;;;;;;5061652;28;20135;-69
2022/09/19 05:41:20;;;;;;;7.82;3.35;;;11.90;99.90;;;;;;5076982;28;20046;-68
2022/09/19 05:43:50;;;;;;;8.55;3.33;;;12.00;99.90;;;;;;5068059;28;20024;-69
2022/09/19 05:46:16;;;;;;;8.32;3.97;;;11.90;99.90;;;;;;5071924;28;20036;-68
2022/09/19 05:48:49;;;;;;;8.65;3.72;;;11.90;99.90;;;;;;5054310;28;20107;-68
2022/09/19 05:51:16;;;;;;;8.70;3.78;;;12.00;99.90;;;;;;5054180;28;20382;-68
2022/09/19 05:53:55;;;;;;;10.80;3.80;;;12.00;99.90;;;;;;5041624;28;20100;-68
2022/09/19 05:56:49;;;;;;;11.80;4.68;;;12.00;99.90;;;;;;5001674;28;20034;-68
2022/09/19 05:59:16;;;;;;;9.73;4.07;;;12.10;99.90;;;;;;4990224;28;20197;-67
2022/09/19 06:01:43;;;;;;;11.98;4.50;;;12.10;99.90;;;;;;4981966;28;20582;-68
2022/09/19 06:04:25;;;;;;;11.27;4.30;;;12.10;99.90;;;;;;4990250;28;20034;-69
2022/09/19 06:06:51;;;;;;;8.93;3.80;;;12.10;99.90;;;;;;4995046;28;20050;-68
2022/09/19 06:09:17;;;;;;;9.07;4.00;;;12.10;99.90;;;;;;4982215;28;20034;-68
2022/09/19 06:11:43;;;;;;;9.70;4.07;;;12.10;99.90;;;;;;4987993;28;20065;-68
2022/09/19 06:14:14;;;;;;;7.72;4.10;;;12.10;99.90;;;;;;4984903;28;20478;-68
2022/09/19 06:16:42;;;;;;;10.05;3.90;;;12.10;99.90;;;;;;4980665;28;20036;-69
2022/09/19 06:19:26;;;;;;;9.60;3.70;;;12.20;99.90;;;;;;4990369;28;20046;-69
2022/09/19 06:22:03;;;;;;;8.20;3.40;;;12.20;99.90;;;;;;4990414;28;20531;-68
2022/09/19 06:24:30;;;;;;;10.60;4.65;;;12.20;99.90;;;;;;4988638;28;20164;-69
2022/09/19 06:26:56;;;;;;;12.52;6.03;;;12.20;99.90;;;;;;4995798;28;20409;-69
2022/09/19 06:29:24;;;;;;;11.95;5.90;;;12.20;99.90;;;;;;4990332;28;20084;-69
2022/09/19 06:32:11;;;;;;;11.93;5.88;;;12.20;99.90;;;;;;4981517;28;20074;-69
2022/09/19 06:34:43;;;;;;;10.38;4.80;;;12.20;99.90;;;;;;5047764;28;20043;-68
2022/09/19 06:37:11;;;;;;;9.30;3.75;;;12.20;99.90;;;;;;5053665;28;20040;-69
2022/09/19 06:39:37;;;;;;;10.63;4.18;;;12.20;99.90;;;;;;5053738;28;20024;-69
2022/09/19 06:42:38;;;;;;;12.48;3.63;;;12.20;99.90;;;;;;4989671;28;20042;-69
2022/09/19 06:45:16;;;;;;;10.82;4.05;;;12.10;99.90;;;;;;4989425;28;20031;-69
2022/09/19 06:48:18;;;;;;;12.35;3.92;;;12.10;99.90;;;;;;4950975;29;20058;-69
2022/09/19 06:50:53;;;;;;;8.60;4.05;;;12.00;99.90;;;;;;4932712;29;20047;-66
2022/09/19 06:53:20;;;;;;;8.05;3.92;;;11.90;99.90;;;;;;4949968;29;20039;-68
2022/09/19 06:55:48;;;;;;;9.65;4.50;;;11.80;99.90;;;;;;4950870;29;20042;-67
2022/09/19 06:58:21;;;;;;;14.82;5.30;;;11.70;99.90;;;;;;4935076;29;20047;-67
2022/09/19 07:00:48;;;;;;;10.60;4.57;;;11.80;99.90;;;;;;4950871;29;20039;-69
2022/09/19 07:03:17;;;;;;;13.80;5.10;;;12.00;99.90;;;;;;4935049;29;20067;-69
2022/09/19 07:05:51;;;;;;;12.00;5.00;;;11.80;99.90;;;;;;4949050;28;20516;-67
2022/09/19 07:08:25;;;;;;;9.60;4.95;;;11.90;99.90;;;;;;4948780;29;20027;-66
2022/09/19 07:10:56;;;;;;;10.70;5.25;;;11.90;99.90;;;;;;4948778;28;20461;-69
2022/09/19 07:13:22;;;;;;;13.70;5.30;;;11.50;99.90;;;;;;4969179;28;20105;-68
2022/09/19 07:16:01;;;;;;;11.93;3.97;;;11.80;99.90;;;;;;4950838;28;20062;-68
2022/09/19 07:18:27;;;;;;;10.50;4.43;;;11.80;99.90;;;;;;5029150;28;20029;-69
2022/09/19 07:20:55;;;;;;;11.13;3.78;;;12.00;99.90;;;;;;4996095;28;20026;-68
2022/09/19 07:23:31;;;;;;;27.52;4.63;;;12.10;99.90;;;;;;5054027;28;20028;-69
2022/09/19 07:26:23;;;;;;;15.05;4.32;;;12.30;99.90;;;;;;5056942;28;20075;-69
2022/09/19 07:28:49;;;;;;;8.48;3.72;;;12.30;99.90;;;;;;5056250;28;20060;-68
2022/09/19 07:31:16;;;;;;;10.85;5.65;;;12.50;99.90;;;;;;5056322;28;20021;-68
2022/09/19 07:33:42;;;;;;;16.77;5.82;;;12.70;99.90;;;;;;5056070;28;20060;-69
2022/09/19 07:36:10;;;;;;;10.45;4.68;;;12.90;99.90;;;;;;5056400;28;20482;-68
2022/09/19 07:38:36;;;;;;;12.18;5.45;;;12.90;99.90;;;;;;5054379;28;20040;-68
2022/09/19 07:41:30;;;;;;;15.48;6.13;;;12.90;99.90;;;;;;5019700;28;20696;-69
2022/09/19 07:44:28;;;;;;;13.95;6.18;;;13.00;99.90;;;;;;5010767;28;20116;-69
2022/09/19 07:47:29;;;;;;;13.18;4.65;;;13.30;99.90;;;;;;4953787;28;20054;-68
2022/09/19 07:50:11;;;;;;;11.52;4.07;;;13.40;99.90;;;;;;4942223;28;20042;-67
2022/09/19 07:52:41;;;;;;;10.60;5.32;;;13.20;99.90;;;;;;4939978;29;20078;-69
2022/09/19 07:55:11;;;;;;;11.25;3.88;;;13.40;99.90;;;;;;4936847;29;20079;-69
2022/09/19 07:57:38;;;;;;;5.95;2.60;;;13.30;99.90;;;;;;4949450;29;20024;-69
2022/09/19 08:00:06;;;;;;;8.65;3.08;;;13.20;99.90;;;;;;4943754;29;20482;-68
2022/09/19 08:02:38;;;;;;;7.70;3.42;;;13.20;99.90;;;;;;4947168;29;20128;-68
2022/09/19 08:05:05;;;;;;;6.53;2.65;;;13.20;99.90;;;;;;4927076;29;20120;-69
2022/09/19 08:07:33;;;;;;;7.10;3.88;;;13.10;99.90;;;;;;4925918;29;20041;-69
2022/09/19 08:10:01;;;;;;;6.80;3.53;;;12.60;99.90;;;;;;4956508;28;20045;-68
2022/09/19 08:12:30;;;;;;;8.43;4.32;;;12.60;99.90;;;;;;4954048;29;20035;-69
2022/09/19 08:15:08;;;;;;;8.00;4.45;;;12.50;99.90;;;;;;4953575;28;20031;-67
2022/09/19 08:17:36;;;;;;;8.10;4.15;;;12.40;99.90;;;;;;4975359;28;20033;-69
2022/09/19 08:20:03;;;;;;;7.80;3.58;;;12.40;99.90;;;;;;4995419;28;20026;-69
2022/09/19 08:22:33;;;;;;;5.47;3.25;;;12.50;99.90;;;;;;5050182;28;20037;-69
2022/09/19 08:25:06;;;;;;;7.53;3.85;;;12.60;99.90;;;;;;5072596;28;20029;-68
2022/09/19 08:27:33;;;;;;;5.53;3.10;;;12.70;99.90;;;;;;5055307;28;20102;-69
2022/09/19 08:29:59;;;;;;;6.57;3.72;;;12.80;99.90;;;;;;5055008;28;20021;-69
2022/09/19 08:32:26;;;;;;;7.38;3.35;;;12.90;99.90;;;;;;5053387;28;20029;-68
2022/09/19 08:34:53;;;;;;;6.43;3.35;;;13.10;99.90;;;;;;5047911;28;20107;-68
2022/09/19 08:37:21;;;;;;;10.95;3.33;;;13.30;99.90;;;;;;5055284;28;20028;-69
2022/09/19 08:42:52;;;;;;;6.03;2.80;;;13.40;99.90;;;;;;5055174;28;20035;-69
2022/09/19 08:45:33;;;;;;;9.35;4.65;;;13.50;99.90;;;;;;5054729;28;20021;-68
2022/09/19 08:48:05;;;;;;;6.32;2.80;;;13.40;99.90;;;;;;5041080;28;20029;-70
2022/09/19 08:50:34;;;;;;;4.60;2.67;;;13.30;99.90;;;;;;5072181;28;20028;-69
2022/09/19 08:53:13;;;;;;;6.00;2.53;;;13.30;99.90;;;;;;5054543;28;20033;-68
2022/09/19 08:55:41;;;;;;;6.82;3.17;;;13.30;99.90;;;;;;5054783;28;20387;-69
2022/09/19 08:58:19;;;;;;;8.02;2.78;;;13.20;99.90;;;;;;5055348;28;20119;-69
2022/09/19 09:01:09;;;;;;;5.40;3.10;;;13.10;99.90;;;;;;4994245;28;20034;-68
2022/09/19 09:04:14;;;;;;;9.15;3.25;;;13.00;99.90;;;;;;4991561;28;20041;-69
2022/09/19 09:07:18;;;;;;;5.82;2.70;;;13.00;99.90;;;;;;4971599;28;20042;-69
2022/09/19 09:09:58;;;;;;;3.40;2.22;;;12.80;99.90;;;;;;4975449;28;20153;-69
2022/09/19 09:12:48;;;;;;;4.15;2.30;;;12.70;99.90;;;;;;4979260;28;20568;-69
2022/09/19 09:15:14;;;;;;;9.13;3.65;;;12.60;99.90;;;;;;4952294;28;20150;-69
2022/09/19 09:18:07;;;;;;;4.57;2.08;;;12.60;99.90;;;;;;4970122;28;20367;-68
2022/09/19 09:20:55;;;;;;;4.10;2.10;;;12.60;99.90;;;;;;4963132;28;20559;-69
2022/09/19 09:23:26;;;;;;;6.07;3.30;;;12.50;99.90;;;;;;4973380;28;20058;-69
2022/09/19 09:26:24;;;;;;;10.77;4.70;;;12.30;99.90;;;;;;4971584;28;20077;-69
2022/09/19 09:29:11;;;;;;;5.53;3.10;;;12.30;99.90;;;;;;4958391;28;20055;-69
2022/09/19 09:31:50;;;;;;;6.90;3.42;;;12.20;99.90;;;;;;4965885;28;20176;-69
2022/09/19 09:34:30;;;;;;;10.88;4.85;;;12.10;99.90;;;;;;4979385;28;20097;-69
2022/09/19 09:37:24;;;;;;;12.15;4.22;;;12.10;99.90;;;;;;4971122;28;20153;-69
2022/09/19 09:40:12;;;;;;;7.50;3.95;;;12.10;99.90;;;;;;5023856;28;20036;-66
2022/09/19 09:43:02;;;;;;;;;;;12.10;99.90;;;;;;5042721;28;20036;-69
2022/09/19 09:45:42;;;;;;;6.57;3.58;;;12.00;99.90;;;;;;5021132;28;19917;-67
2022/09/19 09:48:34;;;;;;;5.60;2.85;;;12.00;99.90;;;;;;5033708;28;20035;-67
2022/09/19 09:51:39;;;;;;;4.03;2.58;;;12.10;99.90;;;;;;5033037;28;20230;-68
2022/09/19 09:57:34;;;;;;;4.47;2.92;;;12.10;99.90;;;;;;5053636;28;20133;-70
2022/09/19 10:03:34;;;;;;;8.30;3.33;;;12.00;99.90;;;;;;5034010;28;20035;-70
2022/09/19 10:06:15;;;;;;;6.68;3.60;;;12.20;99.90;;;;;;5045199;28;20047;-70
2022/09/19 10:08:45;;;;;;;7.50;3.50;;;12.30;99.90;;;;;;5047478;28;20033;-69
2022/09/19 10:11:20;;;;;;;9.48;4.20;;;12.30;99.90;;;;;;5070483;28;20462;-69
2022/09/19 10:13:58;;;;;;;8.18;4.38;;;12.40;99.90;;;;;;5051618;28;20050;-67
2022/09/19 10:16:26;;;;;;;4.95;2.88;;;12.60;99.90;;;;;;5052306;28;20031;-67
2022/09/19 10:18:59;;;;;;;5.68;3.00;;;12.60;99.90;;;;;;5066636;28;20028;-71
2022/09/19 10:21:25;;;;;;;5.90;3.70;;;12.70;99.90;;;;;;5046900;28;20068;-69
2022/09/19 10:23:54;;;;;;;6.40;3.90;;;12.80;99.90;;;;;;5052202;28;20036;-71
2022/09/19 10:26:29;;;;;;;9.70;3.72;;;12.80;99.90;;;;;;5053098;28;20040;-70
2022/09/19 10:29:00;;;;;;;9.00;3.55;;;12.80;99.90;;;;;;5053825;28;20028;-67
2022/09/19 10:31:40;;;;;;;6.25;2.72;;;12.90;99.90;;;;;;5070735;28;20041;-70
2022/09/19 10:34:34;;;;;;;4.93;1.80;;;12.60;99.90;;;;;;5064682;28;20359;-68
2022/09/19 10:37:09;;;;;;;3.80;1.98;;;12.50;99.90;;;;;;5061162;28;20056;-69
2022/09/19 10:39:46;;;;;;;3.13;1.73;;;12.50;99.90;;;;;;5053791;28;20540;-67
2022/09/19 10:42:36;;;;;;;3.60;1.65;;;12.40;99.90;;;;;;5061832;28;20119;-70
2022/09/19 10:45:32;;;;;;;5.55;2.20;;;12.50;99.90;;;;;;5055530;28;20028;-68
2022/09/19 10:48:10;;;;;;;3.15;1.85;;;12.50;99.90;;;;;;5051773;28;20040;-70
2022/09/19 10:50:43;;;;;;;4.20;1.77;;;12.70;99.90;;;;;;5047376;28;20105;-70
2022/09/19 10:53:17;;;;;;;10.38;4.53;;;12.70;99.90;;;;;;5057169;28;20031;-71
2022/09/19 10:55:44;;;;;;;13.90;4.50;;;12.80;99.90;;;;;;5057940;28;20016;-70
2022/09/19 10:58:22;;;;;;;3.13;1.73;;;13.00;99.90;;;;;;5075688;28;20028;-71
2022/09/19 11:01:04;;;;;;;2.58;1.80;;;13.00;99.90;;;;;;5057736;28;20364;-70
2022/09/19 11:03:40;;;;;;;1.88;1.17;;;13.10;99.90;;;;;;5038552;28;20561;-71
2022/09/19 11:06:10;;;;;;;2.70;1.48;;;13.20;99.90;;;;;;5047528;28;20062;-70
2022/09/19 11:08:45;;;;;;;4.45;1.30;;;13.20;99.90;;;;;;5062229;28;20032;-71
2022/09/19 11:11:23;;;;;;;4.07;1.35;;;13.30;99.90;;;;;;5057318;28;20029;-70
2022/09/19 11:14:18;;;;;;;2.35;0.80;;;13.50;99.90;;;;;;5043233;28;20023;-70
2022/09/19 11:16:58;;;;;;;1.08;0.98;;;13.60;99.90;;;;;;5040051;28;20031;-70
2022/09/19 11:20:02;;;;;;;4.25;1.60;;;13.40;99.90;;;;;;5056747;28;20029;-71
2022/09/19 11:22:34;;;;;;;2.88;1.05;;;13.40;99.90;;;;;;5044364;28;20601;-72
2022/09/19 11:25:19;;;;;;;3.50;2.10;;;13.40;99.90;;;;;;5057051;28;20034;-70
2022/09/19 11:27:51;;;;;;;1.98;1.05;;;13.50;99.90;;;;;;5075075;28;20112;-71
2022/09/19 11:30:24;;;;;;;2.08;1.33;;;13.60;99.90;;;;;;5058557;28;20382;-71
2022/09/19 11:33:16;;;;;;;4.05;1.90;;;13.60;99.90;;;;;;5063499;28;20453;-71
2022/09/19 11:37:14;;;;;;;7.47;1.77;;;13.50;99.90;;;;;;5074303;28;20036;-71
2022/09/19 11:40:04;;;;;;;2.65;1.45;;;13.70;99.90;;;;;;4976939;28;20546;-71
2022/09/19 11:43:00;;;;;;;6.78;1.73;;;13.70;99.90;;;;;;4993355;28;20030;-72
2022/09/19 11:45:44;;;;;;;3.10;2.05;;;13.70;99.90;;;;;;4992927;28;20034;-71
2022/09/19 11:48:31;;;;;;;6.07;2.15;;;13.70;99.90;;;;;;4974194;28;20038;-71
2022/09/19 11:51:32;;;;;;;2.65;1.90;;;13.70;99.90;;;;;;4990575;28;20065;-71
2022/09/19 11:54:15;;;;;;;2.63;1.80;;;13.90;99.90;;;;;;4933660;29;20039;-71
2022/09/19 11:56:48;;;;;;;3.72;2.30;;;13.90;99.90;;;;;;4918710;29;20040;-70
2022/09/19 11:59:35;;;;;;;4.15;2.05;;;13.90;99.90;;;;;;4917910;29;20027;-71
2022/09/19 12:02:36;;;;;;;5.95;1.83;;;13.70;99.90;;;;;;4933305;29;20043;-71
2022/09/19 12:05:44;;;;;;;3.08;1.48;;;13.70;99.90;;;;;;4914663;29;20032;-70
2022/09/19 12:08:43;;;;;;;3.03;2.00;;;13.70;99.90;;;;;;4885787;29;20072;-71
2022/09/19 12:11:14;;;;;;;4.13;2.58;;;13.60;99.90;;;;;;4950804;28;20042;-70
2022/09/19 12:13:47;;;;;;;7.20;2.80;;;13.80;99.90;;;;;;4971670;28;20569;-70
2022/09/19 12:16:24;;;;;;;3.58;2.25;;;13.90;99.90;;;;;;4972299;28;20082;-70
2022/09/19 12:18:58;;;;;;;3.47;2.10;;;13.90;99.90;;;;;;4956263;28;20122;-70
2022/09/19 12:21:50;;;;;;;5.00;2.95;;;14.10;99.90;;;;;;4972794;28;20458;-71
2022/09/19 12:25:11;;;;;;;4.57;1.70;;;14.00;99.90;;;;;;4971749;28;20034;-70
2022/09/19 12:27:20;;;;;;;5.10;2.30;;;14.00;99.90;;;;;;4968425;28;20549;-71
2022/09/19 12:30:05;;;;;;;3.47;2.03;;;14.00;99.90;;;;;;5006564;28;20076;-70
2022/09/19 12:33:04;;;;;;;2.35;1.75;;;14.10;99.90;;;;;;5036170;28;20498;-70
2022/09/19 12:36:06;;;;;;;4.03;1.85;;;14.00;99.90;;;;;;5033974;28;20039;-71
2022/09/19 12:39:00;;;;;;;2.67;1.55;;;14.00;99.90;;;;;;5019538;28;20522;-70
2022/09/19 12:41:55;;;;;;;6.60;1.83;;;13.90;99.90;;;;;;5035761;28;20483;-71
2022/09/19 12:44:25;;;;;;;2.88;1.52;;;13.90;99.90;;;;;;5035917;28;20025;-70
2022/09/19 12:47:00;;;;;;;3.60;1.70;;;13.90;99.90;;;;;;5035500;28;20037;-70
2022/09/19 12:50:32;;;;;;;5.28;1.80;;;13.90;99.90;;;;;;5052432;28;20086;-69
2022/09/19 12:53:04;;;;;;;2.15;1.70;;;13.90;99.90;;;;;;5052555;28;20029;-70
2022/09/19 12:55:38;;;;;;;5.00;1.63;;;14.10;99.90;;;;;;5052845;28;20025;-71
2022/09/19 12:58:26;;;;;;;1.83;1.02;;;14.10;99.90;;;;;;5048445;28;20068;-70
2022/09/19 13:01:15;;;;;;;1.75;1.20;;;14.00;99.90;;;;;;5047340;28;20434;-71
2022/09/19 13:03:45;;;;;;;4.47;1.90;;;14.00;99.90;;;;;;5053279;28;20024;-70
2022/09/19 13:06:25;;;;;;;5.78;1.83;;;14.00;99.90;;;;;;5065618;28;20052;-71
2022/09/19 13:08:56;;;;;;;1.50;1.40;;;14.00;99.90;;;;;;5075637;28;20020;-70
2022/09/19 13:11:37;;;;;;;3.08;1.65;;;14.00;99.90;;;;;;5056183;28;20333;-71
2022/09/19 13:14:30;;;;;;;2.20;1.40;;;14.00;99.90;;;;;;5052762;28;20025;-70
2022/09/19 13:25:27;;;;;;;3.38;1.90;;;13.90;99.90;;;;;;5059620;28;20028;-70
2022/09/19 13:28:18;;;;;;;4.47;2.78;;;13.90;99.90;;;;;;5067923;28;20052;-69
2022/09/19 13:30:49;;;;;;;4.88;2.53;;;13.90;99.90;;;;;;5073013;28;20031;-69
2022/09/19 13:33:44;;;;;;;4.90;2.85;;;13.90;99.90;;;;;;5072491;28;20024;-69
2022/09/19 13:36:16;;;;;;;5.88;3.42;;;14.00;99.90;;;;;;4990721;28;20042;-70
2022/09/19 13:39:28;;;;;;;8.32;3.30;;;13.90;99.90;;;;;;4991093;28;20046;-68
2022/09/19 13:41:56;;;;;;;6.70;2.70;;;13.90;99.90;;;;;;4979714;28;20038;-70
2022/09/19 13:44:30;;;;;;;6.60;3.13;;;13.90;99.90;;;;;;4991123;28;20471;-69
2022/09/19 13:47:09;;;;;;;7.20;3.65;;;14.00;99.90;;;;;;4990133;28;20077;-67
2022/09/19 13:49:47;;;;;;;7.50;3.47;;;13.90;99.90;;;;;;4989929;28;20041;-68
2022/09/19 13:52:31;;;;;;;5.60;2.95;;;13.90;99.90;;;;;;4978229;28;20489;-70
2022/09/19 13:55:12;;;;;;;8.35;3.03;;;13.80;99.90;;;;;;4989125;28;20049;-69
2022/09/19 13:57:42;;;;;;;8.00;3.72;;;13.90;99.90;;;;;;4987897;28;20488;-66
2022/09/19 14:00:38;;;;;;;6.18;3.65;;;13.90;99.90;;;;;;4989963;28;20042;-69